sensor_id;sensor_type;location;lat;lon;timestamp;temperature;humidity
40868;DHT22;26586;50.708;22.412;2023-07-13T00:01:30;25.90;60.50
40868;DHT22;26586;50.708;22.412;2023-07-13T00:03:57;25.90;60.50
40868;DHT22;26586;50.708;22.412;2023-07-13T00:06:23;25.90;60.60
40868;DHT22;26586;50.708;22.412;2023-07-13T00:08:49;25.90;60.70
40868;DHT22;26586;50.708;22.412;2023-07-13T00:11:16;25.80;60.60
40868;DHT22;26586;50.708;22.412;2023-07-13T00:13:43;25.90;60.70
40868;DHT22;26586;50.708;22.412;2023-07-13T00:16:11;25.90;60.70
40868;DHT22;26586;50.708;22.412;2023-07-13T00:18:39;25.80;60.70
40868;DHT22;26586;50.708;22.412;2023-07-13T00:21:05;25.90;60.80
40868;DHT22;26586;50.708;22.412;2023-07-13T00:23:36;25.80;60.70
40868;DHT22;26586;50.708;22.412;2023-07-13T00:26:07;25.80;60.80
40868;DHT22;26586;50.708;22.412;2023-07-13T00:28:34;25.80;60.90
40868;DHT22;26586;50.708;22.412;2023-07-13T00:31:01;25.80;60.90
40868;DHT22;26586;50.708;22.412;2023-07-13T00:33:27;25.70;60.90
40868;DHT22;26586;50.708;22.412;2023-07-13T00:35:57;25.70;61.00
40868;DHT22;26586;50.708;22.412;2023-07-13T00:38:24;25.70;61.00
40868;DHT22;26586;50.708;22.412;2023-07-13T00:40:50;25.70;61.00
40868;DHT22;26586;50.708;22.412;2023-07-13T00:43:19;25.70;61.00
40868;DHT22;26586;50.708;22.412;2023-07-13T00:48:17;25.70;61.00
40868;DHT22;26586;50.708;22.412;2023-07-13T00:50:50;25.70;61.10
40868;DHT22;26586;50.708;22.412;2023-07-13T00:53:18;25.70;61.20
40868;DHT22;26586;50.708;22.412;2023-07-13T00:55:46;25.70;61.20
40868;DHT22;26586;50.708;22.412;2023-07-13T00:58:12;25.70;61.30
40868;DHT22;26586;50.708;22.412;2023-07-13T01:00:40;25.70;61.30
40868;DHT22;26586;50.708;22.412;2023-07-13T01:03:06;25.60;61.30
40868;DHT22;26586;50.708;22.412;2023-07-13T01:05:34;25.70;61.30
40868;DHT22;26586;50.708;22.412;2023-07-13T01:08:01;25.60;61.20
40868;DHT22;26586;50.708;22.412;2023-07-13T01:10:30;25.60;61.30
40868;DHT22;26586;50.708;22.412;2023-07-13T01:13:03;25.60;61.20
40868;DHT22;26586;50.708;22.412;2023-07-13T01:15:41;25.60;61.20
40868;DHT22;26586;50.708;22.412;2023-07-13T01:18:18;25.60;61.20
40868;DHT22;26586;50.708;22.412;2023-07-13T01:20:51;25.60;61.10
40868;DHT22;26586;50.708;22.412;2023-07-13T01:23:18;25.60;61.20
40868;DHT22;26586;50.708;22.412;2023-07-13T01:25:45;25.50;61.00
40868;DHT22;26586;50.708;22.412;2023-07-13T01:28:11;25.60;61.00
40868;DHT22;26586;50.708;22.412;2023-07-13T01:30:39;25.50;61.10
40868;DHT22;26586;50.708;22.412;2023-07-13T01:33:07;25.50;61.00
40868;DHT22;26586;50.708;22.412;2023-07-13T01:35:34;25.50;61.10
40868;DHT22;26586;50.708;22.412;2023-07-13T01:38:00;25.50;61.10
40868;DHT22;26586;50.708;22.412;2023-07-13T01:40:28;25.50;61.10
40868;DHT22;26586;50.708;22.412;2023-07-13T01:42:56;25.50;61.00
40868;DHT22;26586;50.708;22.412;2023-07-13T01:45:22;25.50;61.10
40868;DHT22;26586;50.708;22.412;2023-07-13T01:47:48;25.50;61.10
40868;DHT22;26586;50.708;22.412;2023-07-13T01:50:14;25.50;61.20
40868;DHT22;26586;50.708;22.412;2023-07-13T01:52:40;25.50;61.10
40868;DHT22;26586;50.708;22.412;2023-07-13T01:55:07;25.50;61.00
40868;DHT22;26586;50.708;22.412;2023-07-13T01:57:34;25.50;61.00
40868;DHT22;26586;50.708;22.412;2023-07-13T02:00:05;25.40;60.90
40868;DHT22;26586;50.708;22.412;2023-07-13T02:02:32;25.40;61.00
40868;DHT22;26586;50.708;22.412;2023-07-13T02:04:58;25.40;60.90
40868;DHT22;26586;50.708;22.412;2023-07-13T02:07:24;25.40;60.90
40868;DHT22;26586;50.708;22.412;2023-07-13T02:09:50;25.40;60.90
40868;DHT22;26586;50.708;22.412;2023-07-13T02:12:16;25.40;60.80
40868;DHT22;26586;50.708;22.412;2023-07-13T02:14:43;25.40;60.80
40868;DHT22;26586;50.708;22.412;2023-07-13T02:17:10;25.40;60.70
40868;DHT22;26586;50.708;22.412;2023-07-13T02:19:36;25.30;60.60
40868;DHT22;26586;50.708;22.412;2023-07-13T02:22:02;25.30;60.50
40868;DHT22;26586;50.708;22.412;2023-07-13T02:24:29;25.30;60.50
40868;DHT22;26586;50.708;22.412;2023-07-13T02:26:55;25.30;60.50
40868;DHT22;26586;50.708;22.412;2023-07-13T02:29:21;25.30;60.40
40868;DHT22;26586;50.708;22.412;2023-07-13T02:31:48;25.30;60.50
40868;DHT22;26586;50.708;22.412;2023-07-13T02:34:14;25.30;60.40
40868;DHT22;26586;50.708;22.412;2023-07-13T02:36:40;25.30;60.30
40868;DHT22;26586;50.708;22.412;2023-07-13T02:39:07;25.30;60.40
40868;DHT22;26586;50.708;22.412;2023-07-13T02:41:33;25.30;60.40
40868;DHT22;26586;50.708;22.412;2023-07-13T02:44:00;25.20;60.40
40868;DHT22;26586;50.708;22.412;2023-07-13T02:46:30;25.30;60.50
40868;DHT22;26586;50.708;22.412;2023-07-13T02:48:57;25.20;60.30
40868;DHT22;26586;50.708;22.412;2023-07-13T02:51:23;25.20;60.40
40868;DHT22;26586;50.708;22.412;2023-07-13T02:53:49;25.20;60.40
40868;DHT22;26586;50.708;22.412;2023-07-13T02:56:21;25.20;60.50
40868;DHT22;26586;50.708;22.412;2023-07-13T02:58:51;25.20;60.50
40868;DHT22;26586;50.708;22.412;2023-07-13T03:01:17;25.20;60.60
40868;DHT22;26586;50.708;22.412;2023-07-13T03:03:45;25.20;61.40
40868;DHT22;26586;50.708;22.412;2023-07-13T03:06:12;25.20;61.70
40868;DHT22;26586;50.708;22.412;2023-07-13T03:08:39;25.10;61.90
40868;DHT22;26586;50.708;22.412;2023-07-13T03:11:11;25.10;61.90
40868;DHT22;26586;50.708;22.412;2023-07-13T03:13:39;25.10;61.60
40868;DHT22;26586;50.708;22.412;2023-07-13T03:16:06;25.10;61.20
40868;DHT22;26586;50.708;22.412;2023-07-13T03:18:33;25.10;61.30
40868;DHT22;26586;50.708;22.412;2023-07-13T03:20:59;25.10;60.60
40868;DHT22;26586;50.708;22.412;2023-07-13T03:23:25;25.10;60.50
40868;DHT22;26586;50.708;22.412;2023-07-13T03:26:05;25.10;60.50
40868;DHT22;26586;50.708;22.412;2023-07-13T03:28:32;25.10;60.60
40868;DHT22;26586;50.708;22.412;2023-07-13T03:31:09;25.10;60.60
40868;DHT22;26586;50.708;22.412;2023-07-13T03:33:37;25.00;60.60
40868;DHT22;26586;50.708;22.412;2023-07-13T03:36:05;25.00;60.80
40868;DHT22;26586;50.708;22.412;2023-07-13T03:38:32;25.00;60.80
40868;DHT22;26586;50.708;22.412;2023-07-13T03:40:58;25.00;60.90
40868;DHT22;26586;50.708;22.412;2023-07-13T03:43:24;25.00;61.00
40868;DHT22;26586;50.708;22.412;2023-07-13T03:45:50;25.00;61.00
40868;DHT22;26586;50.708;22.412;2023-07-13T03:48:17;25.00;61.10
40868;DHT22;26586;50.708;22.412;2023-07-13T03:50:43;25.00;61.30
40868;DHT22;26586;50.708;22.412;2023-07-13T03:53:09;25.00;61.40
40868;DHT22;26586;50.708;22.412;2023-07-13T03:55:35;25.00;61.60
40868;DHT22;26586;50.708;22.412;2023-07-13T03:58:32;25.00;62.00
40868;DHT22;26586;50.708;22.412;2023-07-13T04:00:59;25.00;61.90
40868;DHT22;26586;50.708;22.412;2023-07-13T04:03:27;25.00;62.10
40868;DHT22;26586;50.708;22.412;2023-07-13T04:05:55;25.00;62.40
40868;DHT22;26586;50.708;22.412;2023-07-13T04:08:30;25.00;62.50
40868;DHT22;26586;50.708;22.412;2023-07-13T04:10:57;25.00;62.50
40868;DHT22;26586;50.708;22.412;2023-07-13T04:13:24;25.00;62.60
40868;DHT22;26586;50.708;22.412;2023-07-13T04:15:50;25.00;62.60
40868;DHT22;26586;50.708;22.412;2023-07-13T04:18:17;25.00;63.00
40868;DHT22;26586;50.708;22.412;2023-07-13T04:20:46;25.10;63.50
40868;DHT22;26586;50.708;22.412;2023-07-13T04:23:13;25.00;63.70
40868;DHT22;26586;50.708;22.412;2023-07-13T04:25:39;25.00;63.70
40868;DHT22;26586;50.708;22.412;2023-07-13T04:28:06;25.00;64.00
40868;DHT22;26586;50.708;22.412;2023-07-13T04:30:32;25.10;63.90
40868;DHT22;26586;50.708;22.412;2023-07-13T04:32:59;25.00;64.50
40868;DHT22;26586;50.708;22.412;2023-07-13T04:35:25;25.10;64.30
40868;DHT22;26586;50.708;22.412;2023-07-13T04:37:51;25.00;64.20
40868;DHT22;26586;50.708;22.412;2023-07-13T04:40:18;25.10;64.60
40868;DHT22;26586;50.708;22.412;2023-07-13T04:42:46;25.10;64.10
40868;DHT22;26586;50.708;22.412;2023-07-13T04:45:13;25.10;63.90
40868;DHT22;26586;50.708;22.412;2023-07-13T04:47:40;25.10;63.80
40868;DHT22;26586;50.708;22.412;2023-07-13T04:50:07;25.10;63.70
40868;DHT22;26586;50.708;22.412;2023-07-13T04:52:34;25.10;63.70
40868;DHT22;26586;50.708;22.412;2023-07-13T04:55:00;25.10;64.20
40868;DHT22;26586;50.708;22.412;2023-07-13T04:57:28;25.10;64.10
40868;DHT22;26586;50.708;22.412;2023-07-13T04:59:54;25.10;64.00
40868;DHT22;26586;50.708;22.412;2023-07-13T05:02:21;25.10;64.10
40868;DHT22;26586;50.708;22.412;2023-07-13T05:04:48;25.10;64.10
40868;DHT22;26586;50.708;22.412;2023-07-13T05:07:14;25.20;64.10
40868;DHT22;26586;50.708;22.412;2023-07-13T05:09:40;25.10;64.20
40868;DHT22;26586;50.708;22.412;2023-07-13T05:12:08;25.20;64.30
40868;DHT22;26586;50.708;22.412;2023-07-13T05:14:35;25.20;64.40
40868;DHT22;26586;50.708;22.412;2023-07-13T05:17:01;25.20;64.40
40868;DHT22;26586;50.708;22.412;2023-07-13T05:19:27;25.20;64.40
40868;DHT22;26586;50.708;22.412;2023-07-13T05:21:54;25.20;64.50
40868;DHT22;26586;50.708;22.412;2023-07-13T05:24:20;25.20;64.40
40868;DHT22;26586;50.708;22.412;2023-07-13T05:26:46;25.20;64.80
40868;DHT22;26586;50.708;22.412;2023-07-13T05:29:12;25.20;64.50
40868;DHT22;26586;50.708;22.412;2023-07-13T05:31:39;25.20;64.60
40868;DHT22;26586;50.708;22.412;2023-07-13T05:34:05;25.20;64.50
40868;DHT22;26586;50.708;22.412;2023-07-13T05:36:31;25.20;64.50
40868;DHT22;26586;50.708;22.412;2023-07-13T05:38:57;25.20;64.60
40868;DHT22;26586;50.708;22.412;2023-07-13T05:41:24;25.20;64.60
40868;DHT22;26586;50.708;22.412;2023-07-13T05:43:50;25.20;64.40
40868;DHT22;26586;50.708;22.412;2023-07-13T05:46:16;25.20;64.50
40868;DHT22;26586;50.708;22.412;2023-07-13T05:48:42;25.20;64.40
40868;DHT22;26586;50.708;22.412;2023-07-13T05:51:09;25.20;64.30
40868;DHT22;26586;50.708;22.412;2023-07-13T05:53:35;25.20;64.80
40868;DHT22;26586;50.708;22.412;2023-07-13T05:56:02;25.30;65.30
40868;DHT22;26586;50.708;22.412;2023-07-13T05:58:28;25.30;65.80
40868;DHT22;26586;50.708;22.412;2023-07-13T06:01:03;25.30;66.20
40868;DHT22;26586;50.708;22.412;2023-07-13T06:03:30;25.30;65.90
40868;DHT22;26586;50.708;22.412;2023-07-13T06:05:57;25.30;65.70
40868;DHT22;26586;50.708;22.412;2023-07-13T06:08:23;25.30;65.80
40868;DHT22;26586;50.708;22.412;2023-07-13T06:10:49;25.30;65.90
40868;DHT22;26586;50.708;22.412;2023-07-13T06:13:15;25.30;66.40
40868;DHT22;26586;50.708;22.412;2023-07-13T06:15:41;25.30;66.00
40868;DHT22;26586;50.708;22.412;2023-07-13T06:18:07;25.30;66.50
40868;DHT22;26586;50.708;22.412;2023-07-13T06:20:34;25.30;66.80
40868;DHT22;26586;50.708;22.412;2023-07-13T06:23:01;25.40;66.80
40868;DHT22;26586;50.708;22.412;2023-07-13T06:25:28;25.40;66.80
40868;DHT22;26586;50.708;22.412;2023-07-13T06:27:54;25.40;66.70
40868;DHT22;26586;50.708;22.412;2023-07-13T06:30:20;25.40;66.60
40868;DHT22;26586;50.708;22.412;2023-07-13T06:32:46;25.40;67.10
40868;DHT22;26586;50.708;22.412;2023-07-13T06:35:12;25.40;66.30
40868;DHT22;26586;50.708;22.412;2023-07-13T06:37:39;25.40;66.00
40868;DHT22;26586;50.708;22.412;2023-07-13T06:40:06;25.40;65.90
40868;DHT22;26586;50.708;22.412;2023-07-13T06:42:32;25.40;66.10
40868;DHT22;26586;50.708;22.412;2023-07-13T06:44:58;25.40;66.30
40868;DHT22;26586;50.708;22.412;2023-07-13T06:47:24;25.50;66.40
40868;DHT22;26586;50.708;22.412;2023-07-13T06:49:51;25.40;66.60
40868;DHT22;26586;50.708;22.412;2023-07-13T06:52:17;25.50;66.70
40868;DHT22;26586;50.708;22.412;2023-07-13T06:54:43;25.50;66.70
40868;DHT22;26586;50.708;22.412;2023-07-13T06:57:09;25.50;66.70
40868;DHT22;26586;50.708;22.412;2023-07-13T06:59:36;25.50;67.10
40868;DHT22;26586;50.708;22.412;2023-07-13T07:02:02;25.50;67.50
40868;DHT22;26586;50.708;22.412;2023-07-13T07:04:28;25.50;68.00
40868;DHT22;26586;50.708;22.412;2023-07-13T07:06:54;25.50;68.20
40868;DHT22;26586;50.708;22.412;2023-07-13T07:09:21;25.50;68.50
40868;DHT22;26586;50.708;22.412;2023-07-13T07:11:47;25.50;69.00
40868;DHT22;26586;50.708;22.412;2023-07-13T07:14:15;25.50;68.30
40868;DHT22;26586;50.708;22.412;2023-07-13T07:16:41;25.50;68.00
40868;DHT22;26586;50.708;22.412;2023-07-13T07:19:08;25.50;68.00
40868;DHT22;26586;50.708;22.412;2023-07-13T07:21:34;25.50;68.60
40868;DHT22;26586;50.708;22.412;2023-07-13T07:24:00;25.50;69.60
40868;DHT22;26586;50.708;22.412;2023-07-13T07:26:26;25.60;69.90
40868;DHT22;26586;50.708;22.412;2023-07-13T07:28:53;25.50;69.80
40868;DHT22;26586;50.708;22.412;2023-07-13T07:31:19;25.60;70.00
40868;DHT22;26586;50.708;22.412;2023-07-13T07:33:45;25.50;69.80
40868;DHT22;26586;50.708;22.412;2023-07-13T07:36:11;25.50;69.70
40868;DHT22;26586;50.708;22.412;2023-07-13T07:38:38;25.50;69.50
40868;DHT22;26586;50.708;22.412;2023-07-13T07:41:04;25.50;69.60
40868;DHT22;26586;50.708;22.412;2023-07-13T07:43:31;25.50;69.90
40868;DHT22;26586;50.708;22.412;2023-07-13T07:45:57;25.50;70.20
40868;DHT22;26586;50.708;22.412;2023-07-13T07:48:24;25.50;70.50
40868;DHT22;26586;50.708;22.412;2023-07-13T07:50:50;25.50;70.60
40868;DHT22;26586;50.708;22.412;2023-07-13T07:53:16;25.50;71.20
40868;DHT22;26586;50.708;22.412;2023-07-13T07:55:42;25.50;70.60
40868;DHT22;26586;50.708;22.412;2023-07-13T07:58:09;25.50;70.70
40868;DHT22;26586;50.708;22.412;2023-07-13T08:00:35;25.50;71.20
40868;DHT22;26586;50.708;22.412;2023-07-13T08:03:02;25.50;71.00
40868;DHT22;26586;50.708;22.412;2023-07-13T08:05:28;25.40;71.20
40868;DHT22;26586;50.708;22.412;2023-07-13T08:07:55;25.50;71.10
40868;DHT22;26586;50.708;22.412;2023-07-13T08:10:21;25.40;70.90
40868;DHT22;26586;50.708;22.412;2023-07-13T08:12:47;25.40;70.90
40868;DHT22;26586;50.708;22.412;2023-07-13T08:15:15;25.40;70.90
40868;DHT22;26586;50.708;22.412;2023-07-13T08:17:42;25.40;71.00
40868;DHT22;26586;50.708;22.412;2023-07-13T08:20:08;25.40;71.20
40868;DHT22;26586;50.708;22.412;2023-07-13T08:22:35;25.40;72.00
40868;DHT22;26586;50.708;22.412;2023-07-13T08:25:02;25.40;71.80
40868;DHT22;26586;50.708;22.412;2023-07-13T08:27:29;25.40;72.20
40868;DHT22;26586;50.708;22.412;2023-07-13T08:29:55;25.40;71.80
40868;DHT22;26586;50.708;22.412;2023-07-13T08:32:22;25.40;72.00
40868;DHT22;26586;50.708;22.412;2023-07-13T08:34:48;25.30;72.40
40868;DHT22;26586;50.708;22.412;2023-07-13T08:37:15;25.40;72.40
40868;DHT22;26586;50.708;22.412;2023-07-13T08:39:43;25.40;72.60
40868;DHT22;26586;50.708;22.412;2023-07-13T08:42:22;25.40;72.50
40868;DHT22;26586;50.708;22.412;2023-07-13T08:45:05;25.40;72.30
40868;DHT22;26586;50.708;22.412;2023-07-13T08:47:39;25.40;72.70
40868;DHT22;26586;50.708;22.412;2023-07-13T08:50:12;25.40;71.90
40868;DHT22;26586;50.708;22.412;2023-07-13T08:52:41;25.40;71.80
40868;DHT22;26586;50.708;22.412;2023-07-13T08:55:26;25.40;71.80
40868;DHT22;26586;50.708;22.412;2023-07-13T08:58:00;25.40;71.50
40868;DHT22;26586;50.708;22.412;2023-07-13T09:00:36;25.40;71.60
40868;DHT22;26586;50.708;22.412;2023-07-13T09:03:06;25.40;71.40
40868;DHT22;26586;50.708;22.412;2023-07-13T09:05:40;25.50;71.30
40868;DHT22;26586;50.708;22.412;2023-07-13T09:16:04;25.50;70.90
40868;DHT22;26586;50.708;22.412;2023-07-13T09:18:41;25.50;71.20
40868;DHT22;26586;50.708;22.412;2023-07-13T09:23:37;25.60;71.10
40868;DHT22;26586;50.708;22.412;2023-07-13T09:28:47;25.60;70.80
40868;DHT22;26586;50.708;22.412;2023-07-13T09:31:32;25.70;70.40
40868;DHT22;26586;50.708;22.412;2023-07-13T09:34:00;25.70;70.70
40868;DHT22;26586;50.708;22.412;2023-07-13T09:36:30;25.70;70.30
40868;DHT22;26586;50.708;22.412;2023-07-13T09:39:04;25.80;70.00
40868;DHT22;26586;50.708;22.412;2023-07-13T09:44:15;25.80;70.20
40868;DHT22;26586;50.708;22.412;2023-07-13T09:46:51;25.90;69.60
40868;DHT22;26586;50.708;22.412;2023-07-13T09:49:18;25.90;69.20
40868;DHT22;26586;50.708;22.412;2023-07-13T09:51:44;25.90;69.10
40868;DHT22;26586;50.708;22.412;2023-07-13T09:54:32;26.00;68.80
40868;DHT22;26586;50.708;22.412;2023-07-13T09:56:59;26.00;68.50
40868;DHT22;26586;50.708;22.412;2023-07-13T09:59:33;26.10;68.30
40868;DHT22;26586;50.708;22.412;2023-07-13T10:01:59;26.10;68.10
40868;DHT22;26586;50.708;22.412;2023-07-13T10:04:32;26.20;67.80
40868;DHT22;26586;50.708;22.412;2023-07-13T10:07:07;26.20;67.60
40868;DHT22;26586;50.708;22.412;2023-07-13T10:09:33;26.30;67.50
40868;DHT22;26586;50.708;22.412;2023-07-13T10:12:00;26.30;67.40
40868;DHT22;26586;50.708;22.412;2023-07-13T10:14:28;26.40;67.20
40868;DHT22;26586;50.708;22.412;2023-07-13T10:17:02;26.50;67.10
40868;DHT22;26586;50.708;22.412;2023-07-13T10:19:32;26.50;66.50
40868;DHT22;26586;50.708;22.412;2023-07-13T10:22:07;26.50;66.20
40868;DHT22;26586;50.708;22.412;2023-07-13T10:24:40;26.60;66.00
40868;DHT22;26586;50.708;22.412;2023-07-13T10:27:16;26.70;65.90
40868;DHT22;26586;50.708;22.412;2023-07-13T10:29:53;26.70;65.70
40868;DHT22;26586;50.708;22.412;2023-07-13T10:32:22;26.80;65.50
40868;DHT22;26586;50.708;22.412;2023-07-13T10:34:51;26.80;65.00
40868;DHT22;26586;50.708;22.412;2023-07-13T10:37:41;26.90;64.90
40868;DHT22;26586;50.708;22.412;2023-07-13T10:40:14;26.90;64.30
40868;DHT22;26586;50.708;22.412;2023-07-13T10:42:45;27.00;64.20
40868;DHT22;26586;50.708;22.412;2023-07-13T10:45:18;27.00;63.90
40868;DHT22;26586;50.708;22.412;2023-07-13T10:47:45;27.10;63.80
40868;DHT22;26586;50.708;22.412;2023-07-13T10:50:19;27.10;63.90
40868;DHT22;26586;50.708;22.412;2023-07-13T10:52:47;27.20;63.30
40868;DHT22;26586;50.708;22.412;2023-07-13T10:58:14;27.30;61.90
40868;DHT22;26586;50.708;22.412;2023-07-13T11:03:50;27.40;61.40
40868;DHT22;26586;50.708;22.412;2023-07-13T11:11:48;27.50;60.80
40868;DHT22;26586;50.708;22.412;2023-07-13T11:16:46;27.60;60.60
40868;DHT22;26586;50.708;22.412;2023-07-13T11:25:06;27.70;60.50
40868;DHT22;26586;50.708;22.412;2023-07-13T11:27:51;27.80;60.40
40868;DHT22;26586;50.708;22.412;2023-07-13T11:30:24;27.80;60.30
40868;DHT22;26586;50.708;22.412;2023-07-13T11:36:02;27.80;60.10
40868;DHT22;26586;50.708;22.412;2023-07-13T11:38:35;27.90;60.00
40868;DHT22;26586;50.708;22.412;2023-07-13T11:41:19;27.90;59.80
40868;DHT22;26586;50.708;22.412;2023-07-13T11:43:52;27.90;59.60
40868;DHT22;26586;50.708;22.412;2023-07-13T11:46:24;27.90;59.60
40868;DHT22;26586;50.708;22.412;2023-07-13T11:48:52;28.00;59.50
40868;DHT22;26586;50.708;22.412;2023-07-13T11:51:31;28.00;59.30
40868;DHT22;26586;50.708;22.412;2023-07-13T11:54:00;28.00;59.20
40868;DHT22;26586;50.708;22.412;2023-07-13T11:56:27;27.90;59.00
40868;DHT22;26586;50.708;22.412;2023-07-13T11:58:56;28.00;59.20
40868;DHT22;26586;50.708;22.412;2023-07-13T12:01:28;28.00;59.10
40868;DHT22;26586;50.708;22.412;2023-07-13T12:04:03;28.00;59.10
40868;DHT22;26586;50.708;22.412;2023-07-13T12:06:34;28.00;59.10
40868;DHT22;26586;50.708;22.412;2023-07-13T12:09:12;28.00;59.10
40868;DHT22;26586;50.708;22.412;2023-07-13T12:11:41;28.00;59.10
40868;DHT22;26586;50.708;22.412;2023-07-13T12:14:15;28.00;59.10
40868;DHT22;26586;50.708;22.412;2023-07-13T12:16:42;28.00;59.00
40868;DHT22;26586;50.708;22.412;2023-07-13T12:19:18;28.00;58.90
40868;DHT22;26586;50.708;22.412;2023-07-13T12:21:44;28.00;58.80
40868;DHT22;26586;50.708;22.412;2023-07-13T12:24:16;28.00;58.70
40868;DHT22;26586;50.708;22.412;2023-07-13T12:26:43;28.00;58.80
40868;DHT22;26586;50.708;22.412;2023-07-13T12:29:16;27.90;58.70
40868;DHT22;26586;50.708;22.412;2023-07-13T12:31:47;27.90;58.70
40868;DHT22;26586;50.708;22.412;2023-07-13T12:34:17;27.90;58.80
40868;DHT22;26586;50.708;22.412;2023-07-13T12:36:48;27.90;58.80
40868;DHT22;26586;50.708;22.412;2023-07-13T12:39:34;27.90;58.90
40868;DHT22;26586;50.708;22.412;2023-07-13T12:42:23;27.80;58.80
40868;DHT22;26586;50.708;22.412;2023-07-13T12:47:23;27.80;58.80
40868;DHT22;26586;50.708;22.412;2023-07-13T12:50:00;27.70;58.80
40868;DHT22;26586;50.708;22.412;2023-07-13T12:52:34;27.70;58.80
40868;DHT22;26586;50.708;22.412;2023-07-13T12:55:19;27.70;58.80
40868;DHT22;26586;50.708;22.412;2023-07-13T12:57:57;27.70;58.70
40868;DHT22;26586;50.708;22.412;2023-07-13T13:03:02;27.70;58.70
40868;DHT22;26586;50.708;22.412;2023-07-13T13:05:30;27.60;58.70
40868;DHT22;26586;50.708;22.412;2023-07-13T13:07:57;27.70;58.80
40868;DHT22;26586;50.708;22.412;2023-07-13T13:10:24;27.60;58.90
40868;DHT22;26586;50.708;22.412;2023-07-13T13:12:50;27.60;58.90
40868;DHT22;26586;50.708;22.412;2023-07-13T13:15:16;27.50;58.90
40868;DHT22;26586;50.708;22.412;2023-07-13T13:17:42;27.50;59.00
40868;DHT22;26586;50.708;22.412;2023-07-13T13:20:17;27.50;59.10
40868;DHT22;26586;50.708;22.412;2023-07-13T13:22:43;27.50;59.10
40868;DHT22;26586;50.708;22.412;2023-07-13T13:25:11;27.50;59.10
40868;DHT22;26586;50.708;22.412;2023-07-13T13:27:40;27.50;59.20
40868;DHT22;26586;50.708;22.412;2023-07-13T13:30:15;27.50;59.20
40868;DHT22;26586;50.708;22.412;2023-07-13T13:32:43;27.50;59.20
40868;DHT22;26586;50.708;22.412;2023-07-13T13:35:15;27.40;59.20
40868;DHT22;26586;50.708;22.412;2023-07-13T13:37:42;27.40;59.20
40868;DHT22;26586;50.708;22.412;2023-07-13T13:40:14;27.40;59.30
40868;DHT22;26586;50.708;22.412;2023-07-13T13:42:41;27.40;59.40
40868;DHT22;26586;50.708;22.412;2023-07-13T13:45:09;27.40;59.60
40868;DHT22;26586;50.708;22.412;2023-07-13T13:47:39;27.40;59.60
40868;DHT22;26586;50.708;22.412;2023-07-13T13:50:25;27.40;59.60
40868;DHT22;26586;50.708;22.412;2023-07-13T13:52:51;27.30;59.60
40868;DHT22;26586;50.708;22.412;2023-07-13T13:55:18;27.30;59.70
40868;DHT22;26586;50.708;22.412;2023-07-13T13:57:46;27.30;59.70
40868;DHT22;26586;50.708;22.412;2023-07-13T14:00:14;27.30;59.70
40868;DHT22;26586;50.708;22.412;2023-07-13T14:02:42;27.30;59.80
40868;DHT22;26586;50.708;22.412;2023-07-13T14:05:11;27.30;59.80
40868;DHT22;26586;50.708;22.412;2023-07-13T14:07:37;27.20;59.80
40868;DHT22;26586;50.708;22.412;2023-07-13T14:10:16;27.20;59.80
40868;DHT22;26586;50.708;22.412;2023-07-13T14:12:44;27.20;59.80
40868;DHT22;26586;50.708;22.412;2023-07-13T14:15:24;27.20;59.90
40868;DHT22;26586;50.708;22.412;2023-07-13T14:17:53;27.20;59.90
40868;DHT22;26586;50.708;22.412;2023-07-13T14:20:22;27.10;59.90
40868;DHT22;26586;50.708;22.412;2023-07-13T14:22:52;27.10;60.00
40868;DHT22;26586;50.708;22.412;2023-07-13T14:25:20;27.10;60.10
40868;DHT22;26586;50.708;22.412;2023-07-13T14:27:53;27.10;60.10
40868;DHT22;26586;50.708;22.412;2023-07-13T14:30:23;27.10;60.30
40868;DHT22;26586;50.708;22.412;2023-07-13T14:32:49;27.10;60.40
40868;DHT22;26586;50.708;22.412;2023-07-13T14:35:17;27.10;60.70
40868;DHT22;26586;50.708;22.412;2023-07-13T14:37:47;27.00;60.80
40868;DHT22;26586;50.708;22.412;2023-07-13T14:40:17;27.10;61.10
40868;DHT22;26586;50.708;22.412;2023-07-13T14:42:44;27.00;61.90
40868;DHT22;26586;50.708;22.412;2023-07-13T14:45:16;27.10;62.30
40868;DHT22;26586;50.708;22.412;2023-07-13T14:47:44;27.00;62.60
40868;DHT22;26586;50.708;22.412;2023-07-13T14:50:22;27.00;63.10
40868;DHT22;26586;50.708;22.412;2023-07-13T14:52:50;27.00;63.20
40868;DHT22;26586;50.708;22.412;2023-07-13T14:55:18;27.00;63.40
40868;DHT22;26586;50.708;22.412;2023-07-13T14:57:45;27.00;63.60
40868;DHT22;26586;50.708;22.412;2023-07-13T15:00:17;27.00;63.40
40868;DHT22;26586;50.708;22.412;2023-07-13T15:02:46;26.90;63.50
40868;DHT22;26586;50.708;22.412;2023-07-13T15:05:25;26.90;63.30
40868;DHT22;26586;50.708;22.412;2023-07-13T15:07:53;26.90;63.30
40868;DHT22;26586;50.708;22.412;2023-07-13T15:10:22;26.90;63.50
40868;DHT22;26586;50.708;22.412;2023-07-13T15:12:52;26.90;63.40
40868;DHT22;26586;50.708;22.412;2023-07-13T15:15:19;26.80;63.30
40868;DHT22;26586;50.708;22.412;2023-07-13T15:17:47;26.80;62.90
40868;DHT22;26586;50.708;22.412;2023-07-13T15:22:48;26.80;63.00
40868;DHT22;26586;50.708;22.412;2023-07-13T15:25:21;26.70;63.10
40868;DHT22;26586;50.708;22.412;2023-07-13T15:27:48;26.70;63.20
40868;DHT22;26586;50.708;22.412;2023-07-13T15:30:15;26.70;63.10
40868;DHT22;26586;50.708;22.412;2023-07-13T15:32:45;26.60;63.00
40868;DHT22;26586;50.708;22.412;2023-07-13T15:35:24;26.60;62.90
40868;DHT22;26586;50.708;22.412;2023-07-13T15:37:51;26.60;62.90
40868;DHT22;26586;50.708;22.412;2023-07-13T15:40:18;26.50;62.60
40868;DHT22;26586;50.708;22.412;2023-07-13T15:42:47;26.50;62.60
40868;DHT22;26586;50.708;22.412;2023-07-13T15:45:14;26.50;62.60
40868;DHT22;26586;50.708;22.412;2023-07-13T15:47:42;26.50;62.60
40868;DHT22;26586;50.708;22.412;2023-07-13T15:50:19;26.50;62.40
40868;DHT22;26586;50.708;22.412;2023-07-13T15:52:50;26.40;62.30
40868;DHT22;26586;50.708;22.412;2023-07-13T15:55:20;26.40;62.20
40868;DHT22;26586;50.708;22.412;2023-07-13T15:57:51;26.40;62.20
40868;DHT22;26586;50.708;22.412;2023-07-13T16:00:26;26.40;62.20
40868;DHT22;26586;50.708;22.412;2023-07-13T16:02:53;26.30;62.70
40868;DHT22;26586;50.708;22.412;2023-07-13T16:05:21;26.30;62.90
40868;DHT22;26586;50.708;22.412;2023-07-13T16:07:51;26.30;63.30
40868;DHT22;26586;50.708;22.412;2023-07-13T16:10:33;26.30;62.50
40868;DHT22;26586;50.708;22.412;2023-07-13T16:13:01;26.30;62.50
40868;DHT22;26586;50.708;22.412;2023-07-13T16:15:27;26.30;62.50